Saint Louis, Missouri
Traffic Map
Current Weather Conditions
Saint Louis, Missouri
Overcast Light Rain
Overcast
13°
Feels Like: 13°
Wind Chill: 13° Ceiling: 3900
Heat Index: 13° Visibility: 9mi
Dew Point: 11° Wind: 5mph
Humidity: 86% Direction: 200° (SSW)
Pressure: 29.99in Gusts: 0mph
Raw Report DataKCPS 222102Z 20004KT 9SM -RA FEW028 OVC039 13/11 A2999 RMK AO2 P0000 T01280106
Traffic Incident Summary
Active as of:
Severity:
Category:
InformationThere was an issue retrieving the traffic information for this location. Please try a different location or try again shortly.
Advertisements
Track Severe Weather on mobile